Time;durP1;ratioP1;P1;durP2;ratioP2;P2;SDS_P1;SDS_P2;PMS_P1;PMS_P2;Temp;Humidity;BMP_temperature;BMP_pressure;BME280_temperature;BME280_humidity;BME280_pressure;Samples;Min_cycle;Max_cycle;Signal;HPM_P1;HPM_P2
2022/10/15 00:00:17;;;;;;;;;;;12.10;99.90;;;;;;5060368;28;20298;-81
2022/10/15 00:02:42;;;;;;;;;;;12.20;99.90;;;;;;5063124;28;19927;-80
2022/10/15 00:05:08;;;;;;;;;;;12.10;99.90;;;;;;5070643;28;19916;-80
2022/10/15 00:07:33;;;;;;;;;;;12.10;99.90;;;;;;5070230;28;19923;-81
2022/10/15 00:09:59;;;;;;;;;;;12.10;99.90;;;;;;5068095;28;19917;-80
2022/10/15 00:12:24;;;;;;;;;;;12.10;99.90;;;;;;5036009;28;19923;-80
2022/10/15 00:14:50;;;;;;;;;;;12.10;99.90;;;;;;5070388;28;19918;-81
2022/10/15 00:17:15;;;;;;;;;;;12.20;99.90;;;;;;5071054;28;19916;-80
2022/10/15 00:19:41;;;;;;;;;;;12.20;99.90;;;;;;5052398;28;19974;-79
2022/10/15 00:22:06;;;;;;;;;;;12.20;99.90;;;;;;5071117;28;19917;-80
2022/10/15 00:24:32;;;;;;;;;;;12.20;99.90;;;;;;5049091;28;19935;-80
2022/10/15 00:26:57;;;;;;;;;;;12.20;99.90;;;;;;5070801;28;19994;-80
2022/10/15 00:29:23;;;;;;;;;;;12.20;99.90;;;;;;5053188;28;19974;-80
2022/10/15 00:31:49;;;;;;;;;;;12.20;99.90;;;;;;5070175;28;19978;-80
2022/10/15 00:34:14;;;;;;;;;;;12.20;99.90;;;;;;5068965;28;19921;-80
2022/10/15 00:36:40;;;;;;;;;;;12.20;99.90;;;;;;5070308;28;19924;-80
2022/10/15 00:39:06;;;;;;;;;;;12.20;99.90;;;;;;5070312;28;19924;-78
2022/10/15 00:41:33;;;;;;;;;;;12.20;99.90;;;;;;5070764;28;19921;-81
2022/10/15 00:44:17;;;;;;;;;;;12.20;99.90;;;;;;5068752;28;19995;-79
2022/10/15 00:46:42;;;;;;;;;;;12.20;99.90;;;;;;5067784;28;19921;-80
2022/10/15 00:49:15;;;;;;;;;;;12.30;99.90;;;;;;5070870;28;19970;-79
2022/10/15 00:51:43;;;;;;;;;;;12.30;99.90;;;;;;5069965;28;19947;-81
2022/10/15 00:54:10;;;;;;;;;;;12.30;99.90;;;;;;5072395;28;19916;-81
2022/10/15 00:56:36;;;;;;;;;;;12.30;99.90;;;;;;5068877;28;19916;-81
2022/10/15 00:59:03;;;;;;;;;;;12.30;99.90;;;;;;5069939;28;19924;-80
2022/10/15 01:01:29;;;;;;;;;;;12.30;99.90;;;;;;5065726;28;19959;-80
2022/10/15 01:03:55;;;;;;;;;;;12.30;99.90;;;;;;5069180;28;19956;-80
2022/10/15 01:06:21;;;;;;;;;;;12.40;99.90;;;;;;5051356;28;20038;-80
2022/10/15 01:08:47;;;;;;;;;;;12.30;99.90;;;;;;5069457;28;19997;-80
2022/10/15 01:11:33;;;;;;;;;;;12.30;99.90;;;;;;5065238;28;20321;-80
2022/10/15 01:14:09;;;;;;;;;;;12.40;99.90;;;;;;5059156;28;19919;-81
2022/10/15 01:16:46;;;;;;;;;;;12.30;99.90;;;;;;5065906;28;19935;-80
2022/10/15 01:19:24;;;;;;;;;;;12.40;99.90;;;;;;5067817;28;19931;-80
2022/10/15 01:21:53;;;;;;;;;;;12.40;99.90;;;;;;5068042;28;19913;-80
2022/10/15 01:24:20;;;;;;;;;;;12.40;99.90;;;;;;5066020;28;19917;-80
2022/10/15 01:27:04;;;;;;;;;;;12.40;99.90;;;;;;5069057;28;20025;-81
2022/10/15 01:29:42;;;;;;;;;;;12.40;99.90;;;;;;5068356;28;19917;-80
2022/10/15 01:32:17;;;;;;;;;;;12.40;99.90;;;;;;5067602;28;19931;-80
2022/10/15 01:34:54;;;;;;;;;;;12.40;99.90;;;;;;5068395;28;20051;-80
2022/10/15 01:37:26;;;;;;;;;;;12.50;99.90;;;;;;5070699;28;20073;-80
2022/10/15 01:39:57;;;;;;;;;;;12.50;99.90;;;;;;5072145;28;19917;-80
2022/10/15 01:42:22;;;;;;;;;;;12.50;99.90;;;;;;5069098;28;19928;-80
2022/10/15 01:44:50;;;;;;;;;;;12.50;99.90;;;;;;5065957;28;19917;-80
2022/10/15 01:47:29;;;;;;;;;;;12.50;99.90;;;;;;5068943;28;19967;-80
2022/10/15 01:49:56;;;;;;;;;;;12.50;99.90;;;;;;5069514;28;19930;-80
2022/10/15 01:52:24;;;;;;;;;;;12.60;99.90;;;;;;5068610;28;19916;-81
2022/10/15 01:54:51;;;;;;;;;;;12.60;99.90;;;;;;5069261;28;20000;-80
2022/10/15 01:57:18;;;;;;;;;;;12.60;99.90;;;;;;5068662;28;20349;-80
2022/10/15 01:59:44;;;;;;;;;;;12.60;99.90;;;;;;5068299;28;20394;-81
2022/10/15 02:02:09;;;;;;;;;;;12.60;99.90;;;;;;5066894;28;19956;-80
2022/10/15 02:04:35;;;;;;;;;;;12.60;99.90;;;;;;5067099;28;19964;-81
2022/10/15 02:07:09;;;;;;;;;;;12.60;99.90;;;;;;5068672;28;19917;-80
2022/10/15 02:09:47;;;;;;;;;;;12.60;99.90;;;;;;5068389;28;19912;-81
2022/10/15 02:12:12;;;;;;;;;;;12.70;99.90;;;;;;5067667;28;20007;-80
2022/10/15 02:14:58;;;;;;;;;;;12.70;99.90;;;;;;5069089;28;20007;-80
2022/10/15 02:17:30;;;;;;;;;;;12.70;99.90;;;;;;5061373;28;19970;-79
2022/10/15 02:19:59;;;;;;;;;;;12.70;99.90;;;;;;5067258;28;19925;-80
2022/10/15 02:22:45;;;;;;;;;;;12.80;99.90;;;;;;5068404;28;19920;-80
2022/10/15 02:25:17;;;;;;;;;;;12.80;99.90;;;;;;5068378;28;19916;-80
2022/10/15 02:27:44;;;;;;;;;;;12.90;99.90;;;;;;5068597;28;20458;-80
2022/10/15 02:30:10;;;;;;;;;;;12.90;99.90;;;;;;5068582;28;19916;-79
2022/10/15 02:32:39;;;;;;;;;;;13.00;99.90;;;;;;5029313;28;20337;-80
2022/10/15 02:35:07;;;;;;;;;;;13.00;99.90;;;;;;5068958;28;20042;-80
2022/10/15 02:37:33;;;;;;;;;;;13.00;99.90;;;;;;5071936;28;20002;-80
2022/10/15 02:39:59;;;;;;;;;;;13.00;99.90;;;;;;5077716;28;19920;-78
2022/10/15 02:42:25;;;;;;;;;;;13.00;99.90;;;;;;5090869;28;19927;-81
2022/10/15 02:44:50;;;;;;;;;;;13.00;99.90;;;;;;5062487;28;19938;-80
2022/10/15 02:47:16;;;;;;;;;;;13.00;99.90;;;;;;5069339;28;19925;-79
2022/10/15 02:49:41;;;;;;;;;;;13.00;99.90;;;;;;5067595;28;19920;-80
2022/10/15 02:52:08;;;;;;;;;;;13.10;99.90;;;;;;5051983;28;20155;-80
2022/10/15 02:54:33;;;;;;;;;;;13.10;99.90;;;;;;5070738;28;20003;-80
2022/10/15 02:56:59;;;;;;;;;;;13.10;99.90;;;;;;5067934;28;20290;-79
2022/10/15 02:59:24;;;;;;;;;;;13.10;99.90;;;;;;5050378;28;21198;-80
2022/10/15 03:01:50;;;;;;;;;;;13.10;99.90;;;;;;5049355;28;20312;-80
2022/10/15 03:04:15;;;;;;;;;;;13.10;99.90;;;;;;5050209;28;19928;-79
2022/10/15 03:06:41;;;;;;;;;;;13.10;99.90;;;;;;5066161;28;19935;-80
2022/10/15 03:09:07;;;;;;;;;;;13.10;99.90;;;;;;5067816;28;19921;-79
2022/10/15 03:11:32;;;;;;;;;;;13.20;99.90;;;;;;5066164;28;20294;-79
2022/10/15 03:13:58;;;;;;;;;;;13.20;99.90;;;;;;5068161;28;19971;-79
2022/10/15 03:16:23;;;;;;;;;;;13.20;99.90;;;;;;5068645;28;19912;-80
2022/10/15 03:18:49;;;;;;;;;;;13.20;99.90;;;;;;5071147;28;19924;-80
2022/10/15 03:21:14;;;;;;;;;;;13.20;99.90;;;;;;5071915;28;19920;-79
2022/10/15 03:23:40;;;;;;;;;;;13.20;99.90;;;;;;5071549;28;19923;-79
2022/10/15 03:26:05;;;;;;;;;;;13.20;99.90;;;;;;5069491;28;19924;-80
2022/10/15 03:28:31;;;;;;;;;;;13.20;99.90;;;;;;5069081;28;19916;-79
2022/10/15 03:30:56;;;;;;;;;;;13.20;99.90;;;;;;5070401;28;20593;-79
2022/10/15 03:33:22;;;;;;;;;;;13.20;99.90;;;;;;5053625;28;20015;-79
2022/10/15 03:35:47;;;;;;;;;;;13.20;99.90;;;;;;5051649;28;19972;-78
2022/10/15 03:38:13;;;;;;;;;;;13.20;99.90;;;;;;5071252;28;19928;-78
2022/10/15 03:40:38;;;;;;;;;;;13.20;99.90;;;;;;5071189;28;19924;-79
2022/10/15 03:43:04;;;;;;;;;;;13.20;99.90;;;;;;5070071;28;19971;-79
2022/10/15 03:45:29;;;;;;;;;;;13.20;99.90;;;;;;5071416;28;20330;-79
2022/10/15 03:47:55;;;;;;;;;;;13.20;99.90;;;;;;5067102;28;19920;-78
2022/10/15 03:50:20;;;;;;;;;;;13.20;99.90;;;;;;5070999;28;19921;-79
2022/10/15 03:52:46;;;;;;;;;;;13.20;99.90;;;;;;5070658;28;19924;-79
2022/10/15 03:55:11;;;;;;;;;;;13.20;99.90;;;;;;5067098;28;19921;-80
2022/10/15 03:57:37;;;;;;;;;;;13.30;99.90;;;;;;5070722;28;20374;-79
2022/10/15 04:00:04;;;;;;;;;;;13.30;99.90;;;;;;5070678;28;20043;-79
2022/10/15 04:02:30;;;;;;;;;;;13.30;99.90;;;;;;5069715;28;19920;-79
2022/10/15 04:04:55;;;;;;;;;;;13.30;99.90;;;;;;5070266;28;19920;-79
2022/10/15 04:07:21;;;;;;;;;;;13.30;99.90;;;;;;5053176;28;19965;-79
2022/10/15 04:09:47;;;;;;;;;;;13.30;99.90;;;;;;5067182;28;20413;-79
2022/10/15 04:12:12;;;;;;;;;;;13.40;99.90;;;;;;5069064;28;19920;-80
2022/10/15 04:14:38;;;;;;;;;;;13.40;99.90;;;;;;5070818;28;19916;-79
2022/10/15 04:17:04;;;;;;;;;;;13.40;99.90;;;;;;5068744;28;20531;-79
2022/10/15 04:19:29;;;;;;;;;;;13.40;99.90;;;;;;5070866;28;20640;-79
2022/10/15 04:21:55;;;;;;;;;;;13.40;99.90;;;;;;5067889;28;20286;-79
2022/10/15 04:24:21;;;;;;;;;;;13.40;99.90;;;;;;5070806;28;19919;-78
2022/10/15 04:26:46;;;;;;;;;;;13.40;99.90;;;;;;5072220;28;20018;-79
2022/10/15 04:29:12;;;;;;;;;;;13.40;99.90;;;;;;5071941;28;20339;-78
2022/10/15 04:31:37;;;;;;;;;;;13.40;99.90;;;;;;5054763;28;19920;-79
2022/10/15 04:34:03;;;;;;;;;;;13.40;99.90;;;;;;5071738;28;19924;-79
2022/10/15 04:36:29;;;;;;;;;;;13.40;99.90;;;;;;5068858;28;19909;-79
2022/10/15 04:38:54;;;;;;;;;;;13.40;99.90;;;;;;5072270;28;19928;-79
2022/10/15 04:41:20;;;;;;;;;;;13.40;99.90;;;;;;5070149;28;19916;-79
2022/10/15 04:43:45;;;;;;;;;;;13.40;99.90;;;;;;5070435;28;20020;-80
2022/10/15 04:46:11;;;;;;;;;;;13.40;99.90;;;;;;5069846;28;19924;-79
2022/10/15 04:48:37;;;;;;;;;;;13.50;99.90;;;;;;5069354;28;19917;-80
2022/10/15 04:51:13;;;;;;;;;;;13.50;99.90;;;;;;5066606;28;19974;-80
2022/10/15 04:53:39;;;;;;;;;;;13.40;99.90;;;;;;5069648;28;20354;-79
2022/10/15 04:56:09;;;;;;;;;;;13.40;99.90;;;;;;5068887;28;19967;-80
2022/10/15 04:58:35;;;;;;;;;;;13.40;99.90;;;;;;5072224;28;19924;-79
2022/10/15 05:01:05;;;;;;;;;;;13.50;99.90;;;;;;5069693;28;19931;-79
2022/10/15 05:03:30;;;;;;;;;;;13.40;99.90;;;;;;5070098;28;19913;-79
2022/10/15 05:06:00;;;;;;;;;;;13.40;99.90;;;;;;5069702;28;20043;-79
2022/10/15 05:08:26;;;;;;;;;;;13.40;99.90;;;;;;5067103;28;19920;-80
2022/10/15 05:10:52;;;;;;;;;;;13.50;99.90;;;;;;5066711;28;19952;-79
2022/10/15 05:13:17;;;;;;;;;;;13.50;99.90;;;;;;5067239;28;20378;-79
2022/10/15 05:15:43;;;;;;;;;;;13.40;99.90;;;;;;5048777;28;19920;-79
2022/10/15 05:18:08;;;;;;;;;;;13.40;99.90;;;;;;5069349;28;19920;-80
2022/10/15 05:20:37;;;;;;;;;;;13.40;99.90;;;;;;5069415;28;19917;-83
2022/10/15 05:23:05;;;;;;;;;;;13.40;99.90;;;;;;5067834;28;19968;-81
2022/10/15 05:25:30;;;;;;;;;;;13.40;99.90;;;;;;5063781;28;19959;-78
2022/10/15 05:27:56;;;;;;;;;;;13.50;99.90;;;;;;5071825;28;19955;-80
2022/10/15 05:30:21;;;;;;;;;;;13.50;99.90;;;;;;5083056;28;19904;-79
2022/10/15 05:32:51;;;;;;;;;;;13.40;99.90;;;;;;5079065;28;19904;-79
2022/10/15 05:35:17;;;;;;;;;;;13.40;99.90;;;;;;5075911;28;20393;-79
2022/10/15 05:37:42;;;;;;;;;;;13.40;99.90;;;;;;5076130;28;19927;-78
2022/10/15 05:40:08;;;;;;;;;;;13.40;99.90;;;;;;5050535;28;19927;-79
2022/10/15 05:42:34;;;;;;;;;;;13.50;99.90;;;;;;5066875;28;19928;-78
2022/10/15 05:44:59;;;;;;;;;;;13.50;99.90;;;;;;5070157;28;19916;-78
2022/10/15 05:47:25;;;;;;;;;;;13.50;99.90;;;;;;5052888;28;19916;-79
2022/10/15 05:49:50;;;;;;;;;;;13.50;99.90;;;;;;5065308;28;19920;-78
2022/10/15 05:52:16;;;;;;;;;;;13.50;99.90;;;;;;5050962;28;19912;-80
2022/10/15 05:54:41;;;;;;;;;;;13.40;99.90;;;;;;5070598;28;20660;-78
2022/10/15 05:57:07;;;;;;;;;;;13.50;99.90;;;;;;5068355;28;19974;-82
2022/10/15 05:59:32;;;;;;;;;;;13.40;99.90;;;;;;5052326;28;20708;-79
2022/10/15 06:01:58;;;;;;;;;;;13.40;99.90;;;;;;5069964;28;19920;-79
2022/10/15 06:04:23;;;;;;;;;;;13.40;99.90;;;;;;5065013;28;19927;-82
2022/10/15 06:06:49;;;;;;;;;;;13.50;99.90;;;;;;5065824;28;19924;-79
2022/10/15 06:09:15;;;;;;;;;;;13.40;99.90;;;;;;5068369;28;20038;-81
2022/10/15 06:11:40;;;;;;;;;;;13.50;99.90;;;;;;5049398;28;19928;-79
2022/10/15 06:14:06;;;;;;;;;;;13.50;99.90;;;;;;5048862;28;20004;-79
2022/10/15 06:16:32;;;;;;;;;;;13.50;99.90;;;;;;5076215;28;19977;-80
2022/10/15 06:18:57;;;;;;;;;;;13.50;99.90;;;;;;5073921;28;19917;-80
2022/10/15 06:21:23;;;;;;;;;;;13.50;99.90;;;;;;5069123;28;19924;-79
2022/10/15 06:23:49;;;;;;;;;;;13.50;99.90;;;;;;5068058;28;20414;-79
2022/10/15 06:26:15;;;;;;;;;;;13.50;99.90;;;;;;5066036;28;19920;-79
2022/10/15 06:28:40;;;;;;;;;;;13.50;99.90;;;;;;5061427;28;19928;-79
2022/10/15 06:31:06;;;;;;;;;;;13.50;99.90;;;;;;5049100;28;19920;-82
2022/10/15 06:33:32;;;;;;;;;;;13.50;99.90;;;;;;5049390;28;20012;-79
2022/10/15 06:36:05;;;;;;;;;;;13.50;99.90;;;;;;5067472;28;20053;-79
2022/10/15 06:38:31;;;;;;;;;;;13.50;99.90;;;;;;5065353;28;19921;-81
2022/10/15 06:40:57;;;;;;;;;;;13.50;99.90;;;;;;5050732;28;19920;-81
2022/10/15 06:43:23;;;;;;;;;;;13.50;99.90;;;;;;5067171;28;19921;-82
2022/10/15 06:45:49;;;;;;;;;;;13.50;99.90;;;;;;5064107;28;19920;-78
2022/10/15 06:48:14;;;;;;;;;;;13.50;99.90;;;;;;5067228;28;19943;-80
2022/10/15 06:50:40;;;;;;;;;;;13.60;99.90;;;;;;5068367;28;19913;-80
2022/10/15 06:53:06;;;;;;;;;;;13.50;99.90;;;;;;5066847;28;19920;-81
2022/10/15 06:55:32;;;;;;;;;;;13.60;99.90;;;;;;5046598;28;19947;-81
2022/10/15 06:57:57;;;;;;;;;;;13.60;99.90;;;;;;5065946;28;19916;-84
2022/10/15 07:00:23;;;;;;;;;;;13.60;99.90;;;;;;5065599;28;20412;-82
2022/10/15 07:02:49;;;;;;;;;;;13.60;99.90;;;;;;5068322;28;20547;-83
2022/10/15 07:05:15;;;;;;;;;;;13.60;99.90;;;;;;5064538;28;20557;-82
2022/10/15 07:07:40;;;;;;;;;;;13.60;99.90;;;;;;5066631;28;19964;-84
2022/10/15 07:10:06;;;;;;;;;;;13.60;99.90;;;;;;5065828;28;20878;-82
2022/10/15 07:12:32;;;;;;;;;;;13.70;99.90;;;;;;5070278;28;19916;-81
2022/10/15 07:14:57;;;;;;;;;;;13.70;99.90;;;;;;5066936;28;19917;-82
2022/10/15 07:17:23;;;;;;;;;;;13.70;99.90;;;;;;5067661;28;19974;-82
2022/10/15 07:19:48;;;;;;;;;;;13.70;99.90;;;;;;5066974;28;19916;-80
2022/10/15 07:22:14;;;;;;;;;;;13.70;99.90;;;;;;5068678;28;19917;-81
2022/10/15 07:24:39;;;;;;;;;;;13.70;99.90;;;;;;5062233;28;20011;-82
2022/10/15 07:27:05;;;;;;;;;;;13.70;99.90;;;;;;5065925;28;19921;-82
2022/10/15 07:29:31;;;;;;;;;;;13.70;99.90;;;;;;5049183;28;19920;-81
2022/10/15 07:31:57;;;;;;;;;;;13.70;99.90;;;;;;5068817;28;19927;-81
2022/10/15 07:34:22;;;;;;;;;;;13.70;99.90;;;;;;5066649;28;19916;-81
2022/10/15 07:36:48;;;;;;;;;;;13.70;99.90;;;;;;5066894;28;20402;-82
2022/10/15 07:39:14;;;;;;;;;;;13.70;99.90;;;;;;5047830;28;19992;-80
2022/10/15 07:41:39;;;;;;;;;;;13.70;99.90;;;;;;5066941;28;19987;-79
2022/10/15 07:44:05;;;;;;;;;;;13.70;99.90;;;;;;5067843;28;20345;-79
2022/10/15 07:46:30;;;;;;;;;;;13.60;99.90;;;;;;5049344;28;19935;-79
2022/10/15 07:48:56;;;;;;;;;;;13.60;99.90;;;;;;5065631;28;19932;-81
2022/10/15 07:51:21;;;;;;;;;;;13.70;99.90;;;;;;5070468;28;19927;-79
2022/10/15 07:53:47;;;;;;;;;;;13.70;99.90;;;;;;5050075;28;19982;-80
2022/10/15 07:56:13;;;;;;;;;;;13.70;99.90;;;;;;5059669;28;19925;-79
2022/10/15 07:58:39;;;;;;;;;;;13.80;99.90;;;;;;5066145;28;19962;-78
2022/10/15 08:01:06;;;;;;;;;;;13.80;99.90;;;;;;5063267;28;19960;-79
2022/10/15 08:03:32;;;;;;;;;;;13.90;99.90;;;;;;5071035;28;19920;-79
2022/10/15 08:06:01;;;;;;;;;;;13.90;99.90;;;;;;5070751;28;19955;-79
2022/10/15 08:08:27;;;;;;;;;;;14.10;99.90;;;;;;5070292;28;19939;-79
2022/10/15 08:10:53;;;;;;;;;;;14.10;99.90;;;;;;5050450;28;20363;-79
2022/10/15 08:13:19;;;;;;;;;;;14.10;99.90;;;;;;5054242;28;20066;-78
2022/10/15 08:15:44;;;;;;;;;;;14.20;99.90;;;;;;5054528;28;19964;-79
2022/10/15 08:18:10;;;;;;;;;;;14.30;99.90;;;;;;5071515;28;19921;-79
2022/10/15 08:20:36;;;;;;;;;;;14.50;99.90;;;;;;5091717;28;19917;-78
2022/10/15 08:23:02;;;;;;;;;;;14.50;99.90;;;;;;5081877;28;19959;-77
2022/10/15 08:25:29;;;;;;;;;;;14.50;99.90;;;;;;5073184;28;20511;-80
2022/10/15 08:27:56;;;;;;;;;;;14.60;99.90;;;;;;5067507;28;19955;-80
2022/10/15 08:30:21;;;;;;;;;;;14.60;99.90;;;;;;5069794;28;19968;-77
2022/10/15 08:32:47;;;;;;;;;;;14.60;99.90;;;;;;5068029;28;20023;-78
2022/10/15 08:35:12;;;;;;;;;;;14.70;99.90;;;;;;5069910;28;20609;-78
2022/10/15 08:37:39;;;;;;;;;;;14.60;99.90;;;;;;5068393;28;19921;-79
2022/10/15 08:40:05;;;;;;;;;;;14.60;99.90;;;;;;5070437;28;19920;-79
2022/10/15 08:42:34;;;;;;;;;;;14.60;99.90;;;;;;5048236;28;19943;-78
2022/10/15 08:45:06;;;;;;;;;;;14.50;99.90;;;;;;5068681;28;20381;-78
2022/10/15 08:47:41;;;;;;;;;;;14.60;99.90;;;;;;5069905;28;20436;-79
2022/10/15 08:50:12;;;;;;;;;;;14.60;99.90;;;;;;5069490;28;20338;-78
2022/10/15 08:52:38;;;;;;;;;;;14.70;99.90;;;;;;5068566;28;19916;-78
2022/10/15 08:55:03;;;;;;;;;;;14.70;99.90;;;;;;5067643;28;19923;-79
2022/10/15 08:57:32;;;;;;;;;;;14.70;99.90;;;;;;5064758;28;19923;-79
2022/10/15 09:00:01;;;;;;;;;;;14.80;99.90;;;;;;5063280;28;19921;-80
2022/10/15 09:02:33;;;;;;;;;;;14.80;99.90;;;;;;5067538;28;19924;-79
2022/10/15 09:04:58;;;;;;;;;;;14.90;99.90;;;;;;5065690;28;19912;-77
2022/10/15 09:07:24;;;;;;;;;;;15.00;99.90;;;;;;5068131;28;19923;-78
2022/10/15 09:09:52;;;;;;;;;;;14.90;99.90;;;;;;5066142;28;19920;-79
2022/10/15 09:12:21;;;;;;;;;;;14.90;99.90;;;;;;5072262;28;20501;-76
2022/10/15 09:14:47;;;;;;;;;;;14.90;99.90;;;;;;5054964;28;20449;-78
2022/10/15 09:17:22;;;;;;;;;;;15.00;99.90;;;;;;5066401;28;19920;-78
2022/10/15 09:19:49;;;;;;;;;;;15.10;99.90;;;;;;5063440;28;19917;-78
2022/10/15 09:22:17;;;;;;;;;;;14.90;99.90;;;;;;5068793;28;19920;-77
2022/10/15 09:24:42;;;;;;;;;;;15.10;99.90;;;;;;5066553;28;20464;-77
2022/10/15 09:27:11;;;;;;;;;;;15.10;99.90;;;;;;5048774;28;19920;-76
2022/10/15 09:29:46;;;;;;;;;;;15.10;99.90;;;;;;5065371;28;20850;-78
2022/10/15 09:32:12;;;;;;;;;;;15.00;99.90;;;;;;5071030;28;19921;-77
2022/10/15 09:34:43;;;;;;;;;;;14.90;99.90;;;;;;5064240;28;19916;-77
2022/10/15 09:37:27;;;;;;;;;;;15.00;99.90;;;;;;5068641;28;19922;-78
2022/10/15 09:39:59;;;;;;;;;;;15.10;99.90;;;;;;5067709;28;20010;-77
2022/10/15 09:42:33;;;;;;;;;;;15.20;99.90;;;;;;5048831;28;20178;-78
2022/10/15 09:45:00;;;;;;;;;;;15.20;99.90;;;;;;5049564;28;19920;-77
2022/10/15 09:47:28;;;;;;;;;;;15.30;99.90;;;;;;5066744;28;20362;-77
2022/10/15 09:49:53;;;;;;;;;;;15.40;99.90;;;;;;5067122;28;20393;-77
2022/10/15 09:52:24;;;;;;;;;;;15.30;99.90;;;;;;5066626;28;19924;-77
2022/10/15 09:54:59;;;;;;;;;;;15.40;99.90;;;;;;5062898;28;19923;-77
2022/10/15 09:57:25;;;;;;;;;;;15.60;99.90;;;;;;5067478;28;19917;-78
2022/10/15 09:59:59;;;;;;;;;;;15.60;99.90;;;;;;5068057;28;19936;-78
2022/10/15 10:02:25;;;;;;;;;;;15.40;99.90;;;;;;5067426;28;20027;-78
2022/10/15 10:04:51;;;;;;;;;;;15.40;99.90;;;;;;5067443;28;20078;-78
2022/10/15 10:07:27;;;;;;;;;;;15.40;99.90;;;;;;5047631;28;19921;-78
2022/10/15 10:09:54;;;;;;;;;;;15.50;99.90;;;;;;5065405;28;19925;-77
2022/10/15 10:12:40;;;;;;;;;;;15.50;99.90;;;;;;5068424;28;19912;-78
2022/10/15 10:15:20;;;;;;;;;;;15.60;99.90;;;;;;5063930;28;19916;-78
2022/10/15 10:17:53;;;;;;;;;;;15.70;99.90;;;;;;5050186;28;20546;-78
2022/10/15 10:20:19;;;;;;;;;;;15.60;99.90;;;;;;5066835;28;20226;-77
2022/10/15 10:22:49;;;;;;;;;;;15.90;99.90;;;;;;5065096;28;21466;-78
2022/10/15 10:25:41;;;;;;;;;;;15.90;98.30;;;;;;5066980;28;19944;-80
2022/10/15 10:28:12;;;;;;;;;;;15.90;99.90;;;;;;5063295;28;20437;-80
2022/10/15 10:30:52;;;;;;;;;;;16.00;99.90;;;;;;5064045;28;19916;-79
2022/10/15 10:33:24;;;;;;;;;;;15.90;98.70;;;;;;5064627;28;19970;-79
2022/10/15 10:35:50;;;;;;;;;;;16.00;98.70;;;;;;5066032;28;20003;-82
2022/10/15 10:38:20;;;;;;;;;;;16.10;99.90;;;;;;5049502;28;20023;-84
2022/10/15 10:40:49;;;;;;;;;;;16.20;99.40;;;;;;5064853;28;19970;-83
2022/10/15 10:43:22;;;;;;;;;;;16.30;95.00;;;;;;5068156;28;19954;-81
2022/10/15 10:45:56;;;;;;;;;;;16.40;96.40;;;;;;5062219;28;19921;-81
2022/10/15 10:48:24;;;;;;;;;;;16.70;96.20;;;;;;5056287;28;19938;-83
2022/10/15 10:51:01;;;;;;;;;;;16.90;94.00;;;;;;5054246;28;19917;-81
2022/10/15 10:53:26;;;;;;;;;;;17.20;95.80;;;;;;5048623;28;19920;-80
2022/10/15 10:55:53;;;;;;;;;;;17.50;91.50;;;;;;5054092;28;19913;-78
2022/10/15 10:58:19;;;;;;;;;;;17.80;87.30;;;;;;5066638;28;19921;-79
2022/10/15 11:00:51;;;;;;;;;;;18.00;84.50;;;;;;5048784;28;19978;-79
2022/10/15 11:03:24;;;;;;;;;;;17.80;84.90;;;;;;5055549;28;19960;-77
2022/10/15 11:05:52;;;;;;;;;;;17.70;83.90;;;;;;5052753;28;19913;-77
2022/10/15 11:08:50;;;;;;;;;;;17.80;84.90;;;;;;5025774;28;20478;-78
2022/10/15 11:11:18;;;;;;;;;;;17.70;82.30;;;;;;5021506;28;19944;-76
2022/10/15 11:14:02;;;;;;;;;;;17.70;82.80;;;;;;5053346;28;19920;-76
2022/10/15 11:16:34;;;;;;;;;;;17.90;82.70;;;;;;5055992;28;20008;-78
2022/10/15 11:19:05;;;;;;;;;;;18.00;80.70;;;;;;5051226;28;19917;-78
2022/10/15 11:21:36;;;;;;;;;;;17.90;80.80;;;;;;5052645;28;19917;-77
2022/10/15 11:24:02;;;;;;;;;;;18.10;81.00;;;;;;5050756;28;19987;-77
2022/10/15 11:26:34;;;;;;;;;;;18.20;79.60;;;;;;5039183;28;20575;-77
2022/10/15 11:29:19;;;;;;;;;;;18.20;78.90;;;;;;5051155;28;19913;-77
2022/10/15 11:31:54;;;;;;;;;;;18.50;80.60;;;;;;5052659;28;19923;-78
2022/10/15 11:34:22;;;;;;;;;;;18.40;78.60;;;;;;5057324;28;19916;-78
2022/10/15 11:37:06;;;;;;;;;;;18.20;76.70;;;;;;5053793;28;19916;-77
2022/10/15 11:39:32;;;;;;;;;;;17.90;76.60;;;;;;5054573;28;19916;-78
2022/10/15 11:42:17;;;;;;;;;;;17.60;77.30;;;;;;5056753;28;20379;-77
2022/10/15 11:44:52;;;;;;;;;;;17.50;77.60;;;;;;5030059;28;20378;-78
2022/10/15 11:47:38;;;;;;;;;;;17.60;78.00;;;;;;5055321;28;19921;-78
2022/10/15 11:50:19;;;;;;;;;;;17.50;79.10;;;;;;5032223;28;19967;-77
2022/10/15 11:52:51;;;;;;;;;;;17.60;78.30;;;;;;5054400;28;20002;-77
2022/10/15 11:55:23;;;;;;;;;;;17.80;80.00;;;;;;5059025;28;19924;-77
2022/10/15 11:57:50;;;;;;;;;;;18.00;78.00;;;;;;5039709;28;19982;-77
2022/10/15 12:00:34;;;;;;;;;;;18.00;76.50;;;;;;5036388;28;19921;-77
2022/10/15 12:03:12;;;;;;;;;;;18.00;76.60;;;;;;5057381;28;19970;-78
2022/10/15 12:05:42;;;;;;;;;;;18.00;78.70;;;;;;5060860;28;19913;-78
2022/10/15 12:08:09;;;;;;;;;;;17.90;78.10;;;;;;5060113;28;20261;-77
2022/10/15 12:10:34;;;;;;;;;;;18.00;77.80;;;;;;5042817;28;19973;-77
2022/10/15 12:13:04;;;;;;;;;;;18.10;76.50;;;;;;5056159;28;19913;-78
2022/10/15 12:15:30;;;;;;;;;;;18.00;76.60;;;;;;5036555;28;20346;-77
2022/10/15 12:18:05;;;;;;;;;;;18.10;78.30;;;;;;5064608;28;19920;-76
2022/10/15 12:20:30;;;;;;;;;;;18.00;76.00;;;;;;5048666;28;19916;-78
2022/10/15 12:22:57;;;;;;;;;;;17.80;77.10;;;;;;5054096;28;20353;-76
2022/10/15 12:25:32;;;;;;;;;;;18.10;78.20;;;;;;5065915;28;19929;-78
2022/10/15 12:28:03;;;;;;;;;;;18.30;77.60;;;;;;5057000;28;20334;-77
2022/10/15 12:30:33;;;;;;;;;;;18.40;77.90;;;;;;5052046;28;20004;-78
2022/10/15 12:32:59;;;;;;;;;;;18.50;77.10;;;;;;5062372;28;19952;-78
2022/10/15 12:35:31;;;;;;;;;;;18.20;77.80;;;;;;5058845;28;19936;-77
2022/10/15 12:38:07;;;;;;;;;;;18.20;78.30;;;;;;5051952;28;19912;-78
2022/10/15 12:40:38;;;;;;;;;;;18.40;77.70;;;;;;5063113;28;19920;-78
2022/10/15 12:43:15;;;;;;;;;;;18.00;77.50;;;;;;5056306;28;19927;-78
2022/10/15 12:45:47;;;;;;;;;;;17.80;78.50;;;;;;5037680;28;19929;-78
2022/10/15 12:48:19;;;;;;;;;;;17.90;79.70;;;;;;5067916;28;20551;-78
2022/10/15 12:50:44;;;;;;;;;;;18.50;79.50;;;;;;5070036;28;19923;-78
2022/10/15 12:53:28;;;;;;;;;;;18.60;77.40;;;;;;5068167;28;19924;-78
2022/10/15 12:56:15;;;;;;;;;;;18.90;76.20;;;;;;5070264;28;19921;-76
2022/10/15 12:58:40;;;;;;;;;;;19.00;77.00;;;;;;5070519;28;19920;-77
2022/10/15 13:01:26;;;;;;;;;;;19.00;75.60;;;;;;5069029;28;20601;-78
2022/10/15 13:03:53;;;;;;;;;;;19.20;72.90;;;;;;5069152;28;20164;-77
2022/10/15 13:06:18;;;;;;;;;;;19.30;75.50;;;;;;5065892;28;19920;-79
2022/10/15 13:08:45;;;;;;;;;;;19.00;77.50;;;;;;5069926;28;19924;-78
2022/10/15 13:11:37;;;;;;;;;;;19.40;77.10;;;;;;5069792;28;19916;-78
2022/10/15 13:14:11;;;;;;;;;;;19.00;73.90;;;;;;5063833;28;19948;-77
2022/10/15 13:16:43;;;;;;;;;;;19.50;74.30;;;;;;5065275;28;19927;-78
2022/10/15 13:19:21;;;;;;;;;;;20.00;72.90;;;;;;5069103;28;19947;-77
2022/10/15 13:21:50;;;;;;;;;;;19.60;73.10;;;;;;5065680;28;20405;-78
2022/10/15 13:24:20;;;;;;;;;;;18.90;72.90;;;;;;5067584;28;20671;-77
2022/10/15 13:26:46;;;;;;;;;;;18.50;73.70;;;;;;5067659;28;19916;-78
2022/10/15 13:29:15;;;;;;;;;;;18.60;74.60;;;;;;5069700;28;20006;-78
2022/10/15 13:31:43;;;;;;;;;;;18.50;75.80;;;;;;5048517;28;19928;-78
2022/10/15 13:34:15;;;;;;;;;;;18.40;74.50;;;;;;5069295;28;19955;-78
2022/10/15 13:36:41;;;;;;;;;;;18.50;74.00;;;;;;5067262;28;20562;-77
2022/10/15 13:39:16;;;;;;;;;;;18.80;75.50;;;;;;5069427;28;19926;-78
2022/10/15 13:41:41;;;;;;;;;;;19.20;73.50;;;;;;5069702;28;20006;-78
2022/10/15 13:44:18;;;;;;;;;;;19.30;71.60;;;;;;5085408;28;19913;-77
2022/10/15 13:46:43;;;;;;;;;;;19.50;70.40;;;;;;5078350;28;20015;-77
2022/10/15 13:49:10;;;;;;;;;;;19.60;71.40;;;;;;5053781;28;20023;-77
2022/10/15 13:51:46;;;;;;;;;;;19.60;71.70;;;;;;5053357;28;19966;-76
2022/10/15 13:54:16;;;;;;;;;;;21.40;68.70;;;;;;5044512;28;19959;-77
2022/10/15 13:56:43;;;;;;;;;;;22.40;60.90;;;;;;5064210;28;19920;-77
2022/10/15 13:59:15;;;;;;;;;;;23.80;59.00;;;;;;5050299;28;20342;-77
2022/10/15 14:01:46;;;;;;;;;;;23.20;55.90;;;;;;5046149;28;19927;-77
2022/10/15 14:04:16;;;;;;;;;;;23.50;55.40;;;;;;5056600;28;19920;-77
2022/10/15 14:06:50;;;;;;;;;;;24.40;52.60;;;;;;5057021;28;19916;-77
2022/10/15 14:09:23;;;;;;;;;;;25.30;50.20;;;;;;5058057;28;19970;-78
2022/10/15 14:11:48;;;;;;;;;;;25.10;49.80;;;;;;5047732;28;19921;-77
2022/10/15 14:14:26;;;;;;;;;;;25.60;48.40;;;;;;5057547;28;19923;-77
2022/10/15 14:16:52;;;;;;;;;;;25.70;49.30;;;;;;5055597;28;19939;-77
2022/10/15 14:19:20;;;;;;;;;;;23.00;52.40;;;;;;5058349;28;20443;-77
2022/10/15 14:21:47;;;;;;;;;;;20.50;62.50;;;;;;5049558;28;19917;-77
2022/10/15 14:24:12;;;;;;;;;;;19.60;66.80;;;;;;5056440;28;19913;-76